Airfield :
LOGIN :

Register | Disclaimer

   EN    FR    IT 

 










Legend :    VFR   Marginal VFR   IFR   Intensive IFR   Very Intensive IFR
Visi :
Ceiling :
>= 8 km
>= 3000ft
5 to 8 km
1000 to 3000 ft
1500m to 5 km
500 to 1000 ft
800 to 1500m
200 to 500 ft
< 800m
< 200 ft
Symbols :   Thunderstorms  Fog  Heavy snow  Heavy precipitations  Wind > 20 kt
SIGMETs :     Misc.  Thunderstorms  Icing  Turbulence  Mountain Waves  Volcanic Ashes






- Airport Elevation : 396 ft


LFOZ - Orléans St Denis

CURRENT METAR :
  • 131530Z AUTO 22005KT 160V310 9999 SCT035 BKN098 21/11 Q1014

EXPIRED METARs :
  • 131500Z AUTO 23006KT 200V260 9999 FEW036 OVC100 20/12 Q1014
  • 131430Z AUTO 23008KT 200V270 9999 BKN034 OVC054 20/13 Q1015
  • 131400Z AUTO VRB02KT 9999 FEW016 SCT046 BKN052 19/13 Q1015
  • 131330Z AUTO 22004KT 180V250 9999 -RA FEW035 BKN056 BKN078 19/13 Q1015
  • 131300Z AUTO 30003KT 240V040 9999 SCT037 SCT058 BKN096 20/11 Q1015
  • 131230Z AUTO 25004KT 160V330 9999 FEW040 OVC088 20/11 Q1015
  • 131200Z AUTO 20005KT 160V270 9999 FEW031/// BKN094/// ///TCU 21/13 Q1015
  • 131130Z AUTO 19006KT 150V240 9999 SCT029 BKN038 20/13 Q1015
  • 131100Z AUTO 16005KT 100V200 9999 SCT030 BKN039 19/12 Q1015

TAF N/A



MET'MAP, your aeronautical weather chart ! - Copyright ORBIFLY December 2007 - Disclaimer

ORBIFLY MET'MAP TEAM :

Programming & Development : Alexandra Zaïnal
Original concept : Baudouin d'Aumeries
Technical & hardware support : Manuel Goepfert
Assistance : Marc-Olivier Méhu




SOURCES & CREDITS :

   NOAA